createdAt,value
2022-09-18T00:01:43.746Z,24.70
2022-09-18T00:04:17.921Z,24.70
2022-09-18T00:06:47.376Z,24.70
2022-09-18T00:09:17.272Z,24.80
2022-09-18T00:11:49.469Z,24.80
2022-09-18T00:14:22.403Z,24.80
2022-09-18T00:16:52.008Z,24.80
2022-09-18T00:19:21.581Z,24.80
2022-09-18T00:21:52.450Z,24.80
2022-09-18T00:24:23.362Z,24.80
2022-09-18T00:26:52.298Z,24.80
2022-09-18T00:29:21.151Z,24.80
2022-09-18T00:31:50.111Z,24.80
2022-09-18T00:34:19.385Z,24.80
2022-09-18T00:36:48.251Z,24.90
2022-09-18T00:39:17.428Z,24.90
2022-09-18T00:41:46.431Z,24.90
2022-09-18T00:44:43.066Z,25.00
2022-09-18T00:47:11.888Z,25.00
2022-09-18T00:49:46.129Z,25.00
2022-09-18T00:52:18.252Z,25.10
2022-09-18T00:54:56.741Z,25.10
2022-09-18T00:57:34.030Z,25.20
2022-09-18T01:00:05.927Z,25.20
2022-09-18T01:02:34.866Z,25.20
2022-09-18T01:05:03.952Z,25.20
2022-09-18T01:07:57.327Z,25.30
2022-09-18T01:10:48.186Z,25.30
2022-09-18T01:13:41.945Z,25.30
2022-09-18T01:16:26.239Z,25.40
2022-09-18T01:19:01.295Z,25.40
2022-09-18T01:21:56.182Z,25.50
2022-09-18T01:24:36.972Z,25.50
2022-09-18T01:27:08.502Z,25.60
2022-09-18T01:29:40.082Z,25.60
2022-09-18T01:32:40.356Z,25.60
2022-09-18T01:35:47.940Z,25.80
2022-09-18T01:38:37.764Z,25.80
2022-09-18T01:41:22.109Z,25.90
2022-09-18T01:43:56.123Z,26.00
2022-09-18T01:46:26.524Z,26.10
2022-09-18T01:49:17.947Z,26.10
2022-09-18T01:51:57.593Z,26.20
2022-09-18T01:54:34.486Z,26.30
2022-09-18T01:57:15.304Z,26.30
2022-09-18T02:00:02.073Z,26.30
2022-09-18T02:02:57.457Z,26.30
2022-09-18T02:05:34.717Z,26.30
2022-09-18T02:08:14.113Z,26.30
2022-09-18T02:10:56.581Z,26.30
2022-09-18T02:13:42.323Z,26.30
2022-09-18T02:16:22.673Z,26.30
2022-09-18T02:18:57.960Z,26.30
2022-09-18T02:21:30.137Z,26.30
2022-09-18T02:24:06.962Z,26.30
2022-09-18T02:26:39.017Z,26.30
2022-09-18T02:29:10.111Z,26.30
2022-09-18T02:31:40.737Z,26.40
2022-09-18T02:34:11.726Z,26.40
2022-09-18T02:36:58.938Z,26.40
2022-09-18T02:39:40.279Z,26.40
2022-09-18T02:42:12.279Z,26.50
2022-09-18T02:45:05.055Z,26.50
2022-09-18T02:47:43.148Z,26.50
2022-09-18T02:50:29.855Z,26.60
2022-09-18T02:53:17.165Z,26.60
2022-09-18T02:56:07.056Z,26.80
2022-09-18T02:59:03.564Z,26.90
2022-09-18T03:01:33.801Z,27.10
2022-09-18T03:04:15.906Z,27.30
2022-09-18T03:06:44.776Z,27.50
2022-09-18T03:09:13.646Z,27.60
2022-09-18T03:11:42.498Z,27.70
2022-09-18T03:14:13.050Z,27.70
2022-09-18T03:16:41.864Z,27.80
2022-09-18T03:19:12.914Z,27.80
2022-09-18T03:21:42.522Z,27.90
2022-09-18T03:24:11.495Z,27.90
2022-09-18T03:26:40.358Z,28.00
2022-09-18T03:29:10.416Z,28.20
2022-09-18T03:31:44.563Z,28.40
2022-09-18T03:34:13.768Z,28.50
2022-09-18T03:36:42.651Z,28.80
2022-09-18T03:39:11.997Z,28.90
2022-09-18T03:41:41.331Z,29.10
2022-09-18T03:44:10.248Z,29.20
2022-09-18T03:46:45.132Z,29.30
2022-09-18T03:49:14.133Z,29.40
2022-09-18T03:51:45.855Z,29.40
2022-09-18T03:54:15.764Z,29.50
2022-09-18T03:56:44.775Z,29.60
2022-09-18T03:59:16.570Z,29.70
2022-09-18T04:01:45.494Z,29.70
2022-09-18T04:04:14.526Z,29.90
2022-09-18T04:06:43.391Z,29.90
2022-09-18T04:09:12.285Z,30.10
2022-09-18T04:11:44.477Z,30.30
2022-09-18T04:14:13.676Z,30.50
2022-09-18T04:16:43.022Z,30.60
2022-09-18T04:19:12.490Z,30.80
2022-09-18T04:21:41.385Z,31.00
2022-09-18T04:24:10.306Z,31.10
2022-09-18T04:26:39.389Z,31.20
2022-09-18T04:29:13.754Z,31.30
2022-09-18T04:31:44.677Z,31.30
2022-09-18T04:34:13.577Z,31.40
2022-09-18T04:36:42.441Z,31.50
2022-09-18T04:39:11.288Z,31.70
2022-09-18T04:41:40.195Z,31.70
2022-09-18T04:44:09.210Z,31.60
2022-09-18T04:46:38.129Z,31.60
2022-09-18T04:49:07.101Z,31.40
2022-09-18T04:51:40.554Z,31.40
2022-09-18T04:54:10.858Z,31.20
2022-09-18T04:56:42.102Z,31.20
2022-09-18T04:59:11.022Z,31.20
2022-09-18T05:01:40.268Z,31.20
2022-09-18T05:04:09.587Z,31.30
2022-09-18T05:06:38.475Z,31.40
2022-09-18T05:09:07.406Z,31.50
2022-09-18T05:11:36.293Z,31.50
2022-09-18T05:14:05.153Z,31.50
2022-09-18T05:16:34.350Z,31.60
2022-09-18T05:19:03.305Z,31.50
2022-09-18T05:21:32.198Z,31.40
2022-09-18T05:24:01.453Z,31.30
2022-09-18T05:26:31.548Z,31.10
2022-09-18T05:29:00.424Z,31.00
2022-09-18T05:31:29.340Z,30.90
2022-09-18T05:33:58.538Z,30.80
2022-09-18T05:36:27.483Z,30.70
2022-09-18T05:38:56.375Z,30.60
2022-09-18T05:41:25.295Z,30.60
2022-09-18T05:43:54.277Z,30.60
2022-09-18T05:46:23.308Z,30.60
2022-09-18T05:48:52.417Z,30.60
2022-09-18T05:51:21.303Z,30.70
2022-09-18T05:53:50.394Z,30.70
2022-09-18T05:56:19.318Z,30.90
2022-09-18T05:58:50.200Z,31.00
2022-09-18T06:01:19.118Z,31.10
2022-09-18T06:03:51.638Z,31.20
2022-09-18T06:06:20.820Z,31.20
2022-09-18T06:08:49.708Z,31.30
2022-09-18T06:11:22.619Z,31.50
2022-09-18T06:13:53.572Z,31.60
2022-09-18T06:16:22.714Z,31.80
2022-09-18T06:18:51.628Z,31.90
2022-09-18T06:21:20.716Z,32.10
2022-09-18T06:23:49.611Z,32.20
2022-09-18T06:26:18.509Z,32.30
2022-09-18T06:28:50.589Z,32.50
2022-09-18T06:31:19.584Z,32.70
2022-09-18T06:33:50.596Z,32.90
2022-09-18T06:36:20.734Z,33.10
2022-09-18T06:38:52.350Z,33.20
2022-09-18T06:41:21.281Z,33.40
2022-09-18T06:43:52.756Z,33.40
2022-09-18T06:46:22.004Z,33.60
2022-09-18T06:48:57.324Z,33.60
2022-09-18T06:51:26.202Z,33.60
2022-09-18T06:53:55.034Z,33.50
2022-09-18T06:56:29.943Z,33.50
2022-09-18T06:58:58.949Z,33.60
2022-09-18T07:01:27.925Z,33.70
2022-09-18T07:03:56.820Z,33.80
2022-09-18T07:06:25.935Z,33.80
2022-09-18T07:08:55.021Z,33.80
2022-09-18T07:11:24.092Z,33.90
2022-09-18T07:13:54.331Z,33.80
2022-09-18T07:16:25.615Z,33.80
2022-09-18T07:18:55.024Z,33.60
2022-09-18T07:21:30.492Z,33.50
2022-09-18T07:23:59.496Z,33.50
2022-09-18T07:26:32.447Z,33.40
2022-09-18T07:29:01.408Z,33.30
2022-09-18T07:31:36.692Z,33.40
2022-09-18T07:34:05.769Z,33.40
2022-09-18T07:36:34.682Z,33.50
2022-09-18T07:39:03.713Z,33.60
2022-09-18T07:41:32.807Z,33.60
2022-09-18T07:44:02.659Z,33.70
2022-09-18T07:46:31.768Z,33.70
2022-09-18T07:49:00.756Z,33.70
2022-09-18T07:51:30.162Z,33.60
2022-09-18T07:53:59.053Z,33.50
2022-09-18T07:56:34.433Z,33.50
2022-09-18T07:59:03.433Z,33.40
2022-09-18T08:01:34.574Z,33.40
2022-09-18T08:04:05.148Z,33.40
2022-09-18T08:06:34.534Z,33.30
2022-09-18T08:09:04.050Z,33.20
2022-09-18T08:11:33.186Z,33.10
2022-09-18T08:14:02.124Z,33.00
2022-09-18T08:16:31.182Z,33.00
2022-09-18T08:19:00.089Z,33.00
2022-09-18T08:21:31.101Z,33.00
2022-09-18T08:24:00.088Z,32.90
2022-09-18T08:26:29.167Z,32.90
2022-09-18T08:28:58.084Z,32.80
2022-09-18T08:34:14.744Z,32.60
2022-09-18T08:36:43.619Z,32.60
2022-09-18T08:39:12.511Z,32.60
2022-09-18T08:42:05.449Z,32.60
2022-09-18T08:44:44.754Z,32.50
2022-09-18T08:47:19.738Z,32.40
2022-09-18T08:50:20.760Z,32.30
2022-09-18T08:52:57.459Z,32.30
2022-09-18T08:55:28.912Z,32.30
2022-09-18T08:58:28.316Z,32.20
2022-09-18T09:01:24.275Z,32.10
2022-09-18T09:04:14.843Z,31.90
2022-09-18T09:06:49.633Z,31.90
2022-09-18T09:09:33.045Z,31.80
2022-09-18T09:12:01.888Z,31.80
2022-09-18T09:14:58.202Z,31.80
2022-09-18T09:17:47.348Z,31.70
2022-09-18T09:20:52.155Z,31.70
2022-09-18T09:23:25.347Z,31.60
2022-09-18T09:26:07.599Z,31.60
2022-09-18T09:28:56.881Z,31.50
2022-09-18T09:31:30.895Z,31.40
2022-09-18T09:34:24.257Z,31.30
2022-09-18T09:36:57.900Z,31.30
2022-09-18T09:39:45.132Z,31.30
2022-09-18T09:45:34.601Z,31.30
2022-09-18T09:48:22.325Z,31.30
2022-09-18T09:51:03.575Z,31.30
2022-09-18T09:53:32.599Z,31.30
2022-09-18T09:56:29.991Z,31.40
2022-09-18T09:59:28.224Z,31.40
2022-09-18T10:02:18.489Z,31.30
2022-09-18T10:04:54.964Z,31.30
2022-09-18T10:07:37.265Z,31.30
2022-09-18T10:10:44.570Z,31.30
2022-09-18T10:13:18.615Z,31.20
2022-09-18T10:15:50.730Z,31.20
2022-09-18T10:18:27.043Z,31.10
2022-09-18T10:21:07.723Z,31.10
2022-09-18T10:24:01.835Z,31.10
2022-09-18T10:26:36.302Z,31.10
2022-09-18T10:29:05.192Z,31.10
2022-09-18T10:31:54.061Z,31.00
2022-09-18T10:34:44.883Z,31.00
2022-09-18T10:37:38.897Z,30.90
2022-09-18T10:40:28.075Z,30.90
2022-09-18T10:42:57.721Z,30.90
2022-09-18T10:45:37.736Z,30.80
2022-09-18T10:48:19.881Z,30.80
2022-09-18T10:51:03.068Z,30.80
2022-09-18T10:53:39.850Z,30.80
2022-09-18T10:56:23.656Z,30.80
2022-09-18T10:58:52.588Z,30.70
2022-09-18T11:01:22.425Z,30.70
2022-09-18T11:04:02.243Z,30.60
2022-09-18T11:06:35.555Z,30.60
2022-09-18T11:09:10.655Z,30.60
2022-09-18T11:11:44.428Z,30.50
2022-09-18T11:14:27.361Z,30.40
2022-09-18T11:17:02.143Z,30.40
2022-09-18T11:19:40.694Z,30.30
2022-09-18T11:22:38.488Z,30.20
2022-09-18T11:25:16.498Z,30.00
2022-09-18T11:27:54.865Z,29.90
2022-09-18T11:30:26.136Z,29.80
2022-09-18T11:33:25.482Z,29.70
2022-09-18T11:36:01.122Z,29.60
2022-09-18T11:38:31.143Z,29.50
2022-09-18T11:41:02.779Z,29.40
2022-09-18T11:43:36.923Z,29.30
2022-09-18T11:46:38.198Z,29.10
2022-09-18T11:49:17.172Z,29.00
2022-09-18T11:51:57.459Z,29.00
2022-09-18T11:54:55.728Z,28.90
2022-09-18T11:57:41.588Z,28.80
2022-09-18T12:00:18.421Z,28.80
2022-09-18T12:03:01.507Z,28.80
2022-09-18T12:05:57.856Z,28.70
2022-09-18T12:08:34.503Z,28.70
2022-09-18T12:11:21.849Z,28.70
2022-09-18T12:14:26.070Z,28.70
2022-09-18T12:17:01.249Z,28.70
2022-09-18T12:19:49.412Z,28.70
2022-09-18T12:22:29.405Z,28.70
2022-09-18T12:24:58.409Z,28.70
2022-09-18T12:28:10.048Z,28.70
2022-09-18T12:30:50.622Z,28.80
2022-09-18T12:33:33.428Z,28.80
2022-09-18T12:36:39.111Z,28.80
2022-09-18T12:39:39.339Z,28.80
2022-09-18T12:42:40.334Z,28.80
2022-09-18T12:45:34.970Z,28.60
2022-09-18T12:48:22.346Z,28.50
2022-09-18T12:51:15.519Z,28.40
2022-09-18T12:54:16.030Z,28.30
2022-09-18T12:57:21.861Z,28.10
2022-09-18T12:59:56.074Z,28.10
2022-09-18T13:02:56.037Z,28.00
2022-09-18T13:05:24.931Z,27.90
2022-09-18T13:08:06.190Z,27.80
2022-09-18T13:10:41.009Z,27.70
2022-09-18T13:13:41.499Z,27.70
2022-09-18T13:16:19.278Z,27.60
2022-09-18T13:19:02.272Z,27.60
2022-09-18T13:21:38.811Z,27.50
2022-09-18T13:24:12.625Z,27.50
2022-09-18T13:26:42.036Z,27.50
2022-09-18T13:29:47.796Z,27.50
2022-09-18T13:32:26.424Z,27.50
2022-09-18T13:35:00.877Z,27.50
2022-09-18T13:37:32.043Z,27.40
2022-09-18T13:40:27.485Z,27.40
2022-09-18T13:42:56.561Z,27.40
2022-09-18T13:45:28.051Z,27.30
2022-09-18T13:48:17.365Z,27.30
2022-09-18T13:51:03.731Z,27.20
2022-09-18T13:53:47.426Z,27.20
2022-09-18T13:56:17.923Z,27.10
2022-09-18T13:58:55.939Z,27.10
2022-09-18T14:01:43.112Z,27.00
2022-09-18T14:04:44.572Z,26.90
2022-09-18T14:07:33.483Z,26.90
2022-09-18T14:10:07.012Z,26.80
2022-09-18T14:12:37.014Z,26.80
2022-09-18T14:15:18.733Z,26.80
2022-09-18T14:18:07.855Z,26.70
2022-09-18T14:20:36.989Z,26.70
2022-09-18T14:23:41.799Z,26.70
2022-09-18T14:26:30.204Z,26.70
2022-09-18T14:29:11.271Z,26.70
2022-09-18T14:32:01.208Z,26.70
2022-09-18T14:34:39.234Z,26.60
2022-09-18T14:37:34.159Z,26.60
2022-09-18T14:40:13.108Z,26.60
2022-09-18T14:42:44.365Z,26.50
2022-09-18T14:45:16.086Z,26.60
2022-09-18T14:47:47.710Z,26.60
2022-09-18T14:50:38.739Z,26.50
2022-09-18T14:53:28.949Z,26.60
2022-09-18T14:56:07.466Z,26.50
2022-09-18T14:58:42.274Z,26.50
2022-09-18T15:01:18.401Z,26.50
2022-09-18T15:03:50.498Z,26.50
2022-09-18T15:06:33.198Z,26.50
2022-09-18T15:09:03.193Z,26.50
2022-09-18T15:11:52.228Z,26.50
2022-09-18T15:14:41.517Z,26.50
2022-09-18T15:17:37.973Z,26.50
2022-09-18T15:20:17.577Z,26.50
2022-09-18T15:22:46.422Z,26.40
2022-09-18T15:25:16.585Z,26.40
2022-09-18T15:27:46.595Z,26.40
2022-09-18T15:30:21.208Z,26.40
2022-09-18T15:32:56.036Z,26.30
2022-09-18T15:35:27.905Z,26.30
2022-09-18T15:38:03.673Z,26.30
2022-09-18T15:40:38.688Z,26.30
2022-09-18T15:43:27.681Z,26.30
2022-09-18T15:46:08.609Z,26.30
2022-09-18T15:48:52.014Z,26.20
2022-09-18T15:51:27.463Z,26.20
2022-09-18T15:54:14.282Z,26.20
2022-09-18T15:57:03.229Z,26.20
2022-09-18T15:59:38.494Z,26.10
2022-09-18T16:02:40.095Z,26.10
2022-09-18T16:05:16.070Z,26.10
2022-09-18T16:08:03.457Z,26.10
2022-09-18T16:10:38.447Z,26.10
2022-09-18T16:13:13.592Z,26.10
2022-09-18T16:15:48.491Z,26.10
2022-09-18T16:18:17.272Z,26.10
2022-09-18T16:21:06.928Z,26.10
2022-09-18T16:23:48.774Z,26.10
2022-09-18T16:26:32.698Z,26.10
2022-09-18T16:29:23.364Z,26.10
2022-09-18T16:31:52.279Z,26.10
2022-09-18T16:34:31.055Z,26.10
2022-09-18T16:37:00.123Z,26.10
2022-09-18T16:39:29.196Z,26.10
2022-09-18T16:41:58.116Z,26.10
2022-09-18T16:44:26.985Z,26.00
2022-09-18T16:47:02.009Z,26.10
2022-09-18T16:49:36.777Z,26.10
2022-09-18T16:52:06.422Z,26.10
2022-09-18T16:54:35.382Z,26.10
2022-09-18T16:57:19.397Z,26.10
2022-09-18T16:59:49.772Z,26.10
2022-09-18T17:02:25.466Z,26.10
2022-09-18T17:04:55.045Z,26.00
2022-09-18T17:07:23.860Z,26.00
2022-09-18T17:09:52.978Z,26.00
2022-09-18T17:12:21.869Z,26.00
2022-09-18T17:14:50.837Z,26.00
2022-09-18T17:17:19.843Z,26.00
2022-09-18T17:19:48.827Z,26.00
2022-09-18T17:22:20.918Z,25.90
2022-09-18T17:24:53.074Z,25.90
2022-09-18T17:27:22.128Z,25.90
2022-09-18T17:29:50.993Z,25.90
2022-09-18T17:32:20.013Z,25.80
2022-09-18T17:34:48.890Z,25.80
2022-09-18T17:37:17.771Z,25.80
2022-09-18T17:39:47.510Z,25.80
2022-09-18T17:42:16.526Z,25.80
2022-09-18T17:44:45.395Z,25.70
2022-09-18T17:47:14.429Z,25.70
2022-09-18T17:49:43.415Z,25.70
2022-09-18T17:52:12.274Z,25.70
2022-09-18T17:54:41.275Z,25.70
2022-09-18T17:57:13.256Z,25.70
2022-09-18T17:59:44.910Z,25.60
2022-09-18T18:02:14.729Z,25.60
2022-09-18T18:04:43.642Z,25.60
2022-09-18T18:07:12.517Z,25.60
2022-09-18T18:09:41.989Z,25.60
2022-09-18T18:12:10.832Z,25.60
2022-09-18T18:14:39.791Z,25.60
2022-09-18T18:17:09.720Z,25.50
2022-09-18T18:19:38.747Z,25.50
2022-09-18T18:22:07.704Z,25.50
2022-09-18T18:24:36.594Z,25.50
2022-09-18T18:27:06.264Z,25.50
2022-09-18T18:29:35.134Z,25.50
2022-09-18T18:32:04.135Z,25.40
2022-09-18T18:34:33.804Z,25.40
2022-09-18T18:37:04.036Z,25.40
2022-09-18T18:39:32.939Z,25.40
2022-09-18T18:42:01.920Z,25.40
2022-09-18T18:44:30.812Z,25.40
2022-09-18T18:47:00.295Z,25.40
2022-09-18T18:49:29.222Z,25.40
2022-09-18T18:51:58.360Z,25.40
2022-09-18T18:54:27.257Z,25.40
2022-09-18T18:56:56.211Z,25.40
2022-09-18T18:59:26.720Z,25.30
2022-09-18T19:01:58.844Z,25.30
2022-09-18T19:04:28.015Z,25.30
2022-09-18T19:06:57.813Z,25.30
2022-09-18T19:09:29.624Z,25.30
2022-09-18T19:11:58.785Z,25.30
2022-09-18T19:14:32.624Z,25.30
2022-09-18T19:17:02.204Z,25.30
2022-09-18T19:19:31.466Z,25.30
2022-09-18T19:22:00.638Z,25.30
2022-09-18T19:24:31.245Z,25.30
2022-09-18T19:27:00.136Z,25.30
2022-09-18T19:29:30.570Z,25.30
2022-09-18T19:32:00.506Z,25.30
2022-09-18T19:34:29.585Z,25.30
2022-09-18T19:37:00.463Z,25.30
2022-09-18T19:39:29.449Z,25.30
2022-09-18T19:42:13.422Z,25.30
2022-09-18T19:44:55.402Z,25.30
2022-09-18T19:47:36.883Z,25.30
2022-09-18T19:50:07.352Z,25.30
2022-09-18T19:52:36.354Z,25.30
2022-09-18T19:55:05.370Z,25.30
2022-09-18T19:57:34.237Z,25.30
2022-09-18T20:00:03.755Z,25.30
2022-09-18T20:02:32.639Z,25.30
2022-09-18T20:05:03.058Z,25.30
2022-09-18T20:07:32.189Z,25.30
2022-09-18T20:10:01.184Z,25.30
2022-09-18T20:12:34.831Z,25.30
2022-09-18T20:15:04.878Z,25.40
2022-09-18T20:17:34.022Z,25.40
2022-09-18T20:20:03.277Z,25.40
2022-09-18T20:22:32.167Z,25.40
2022-09-18T20:25:01.098Z,25.40
2022-09-18T20:27:29.945Z,25.40
2022-09-18T20:29:58.848Z,25.40
2022-09-18T20:32:27.728Z,25.40
2022-09-18T20:34:57.749Z,25.40
2022-09-18T20:37:28.262Z,25.40
2022-09-18T20:39:57.121Z,25.40
2022-09-18T20:42:26.888Z,25.40
2022-09-18T20:45:01.256Z,25.40
2022-09-18T20:47:35.938Z,25.40
2022-09-18T20:50:07.595Z,25.40
2022-09-18T20:52:44.180Z,25.40
2022-09-18T20:55:18.551Z,25.50
2022-09-18T20:57:47.765Z,25.50
2022-09-18T21:00:18.250Z,25.50
2022-09-18T21:02:52.882Z,25.50
2022-09-18T21:05:21.901Z,25.50
2022-09-18T21:07:58.418Z,25.50
2022-09-18T21:10:27.289Z,25.50
2022-09-18T21:12:56.197Z,25.50
2022-09-18T21:15:25.040Z,25.50
2022-09-18T21:17:54.022Z,25.50
2022-09-18T21:20:22.960Z,25.50
2022-09-18T21:23:10.207Z,25.50
2022-09-18T21:25:39.259Z,25.50
2022-09-18T21:28:08.119Z,25.50
2022-09-18T21:30:36.969Z,25.50
2022-09-18T21:33:05.870Z,25.50
2022-09-18T21:35:35.734Z,25.50
2022-09-18T21:38:05.854Z,25.60
2022-09-18T21:40:34.792Z,25.50
2022-09-18T21:43:04.403Z,25.60
2022-09-18T21:45:33.206Z,25.60
2022-09-18T21:48:02.010Z,25.50
2022-09-18T21:50:30.860Z,25.50
2022-09-18T21:52:59.717Z,25.50
2022-09-18T21:55:28.618Z,25.50
2022-09-18T21:57:57.614Z,25.50
2022-09-18T22:00:26.531Z,25.50
2022-09-18T22:02:55.903Z,25.50
2022-09-18T22:05:24.882Z,25.50
2022-09-18T22:07:58.757Z,25.50
2022-09-18T22:10:27.236Z,25.50
2022-09-18T22:12:56.310Z,25.50
2022-09-18T22:15:25.222Z,25.50
2022-09-18T22:17:54.111Z,25.50
2022-09-18T22:20:23.085Z,25.50
2022-09-18T22:22:52.115Z,25.50
2022-09-18T22:25:20.948Z,25.50
2022-09-18T22:27:49.775Z,25.50
2022-09-18T22:30:18.716Z,25.50
2022-09-18T22:32:48.058Z,25.50
2022-09-18T22:35:17.004Z,25.50
2022-09-18T22:37:45.899Z,25.50
2022-09-18T22:40:14.880Z,25.50
2022-09-18T22:42:43.788Z,25.50
2022-09-18T22:45:13.143Z,25.50
2022-09-18T22:47:42.035Z,25.50
2022-09-18T22:50:11.143Z,25.40
2022-09-18T22:52:40.058Z,25.40
2022-09-18T22:55:09.243Z,25.40
2022-09-18T22:57:38.076Z,25.40
2022-09-18T23:00:07.923Z,25.40
2022-09-18T23:02:36.880Z,25.40
2022-09-18T23:05:06.642Z,25.40
2022-09-18T23:07:39.942Z,25.40
2022-09-18T23:10:09.478Z,25.40
2022-09-18T23:12:38.460Z,25.40
2022-09-18T23:15:08.327Z,25.40
2022-09-18T23:17:37.175Z,25.40
2022-09-18T23:20:06.379Z,25.40
2022-09-18T23:22:35.270Z,25.30
2022-09-18T23:25:04.193Z,25.40
2022-09-18T23:27:33.050Z,25.40
2022-09-18T23:30:01.940Z,25.40
2022-09-18T23:32:30.877Z,25.30
2022-09-18T23:34:59.728Z,25.40
2022-09-18T23:37:28.540Z,25.40
2022-09-18T23:39:57.479Z,25.40
2022-09-18T23:42:27.793Z,25.40
2022-09-18T23:44:57.332Z,25.40
2022-09-18T23:47:26.285Z,25.40
2022-09-18T23:49:55.125Z,25.50
2022-09-18T23:52:24.000Z,25.50
2022-09-18T23:54:52.886Z,25.50
2022-09-18T23:57:23.679Z,25.60
2022-09-18T23:59:52.703Z,25.60
